sensor_id;sensor_type;location;lat;lon;timestamp;temperature;humidity
39401;DHT22;54391;50.000;7.360;2023-05-10T00:03:50;13.80;99.90
39401;DHT22;54391;50.000;7.360;2023-05-10T00:06:17;11.00;99.90
39401;DHT22;54391;50.000;7.360;2023-05-10T00:11:12;11.00;99.90
39401;DHT22;54391;50.000;7.360;2023-05-10T00:13:39;10.90;99.90
39401;DHT22;54391;50.000;7.360;2023-05-10T00:21:03;10.90;99.90
39401;DHT22;54391;50.000;7.360;2023-05-10T00:25:57;11.00;99.90
39401;DHT22;54391;50.000;7.360;2023-05-10T00:28:25;11.00;99.90
39401;DHT22;54391;50.000;7.360;2023-05-10T00:33:22;10.90;99.90
39401;DHT22;54391;50.000;7.360;2023-05-10T00:40:45;11.00;99.90
39401;DHT22;54391;50.000;7.360;2023-05-10T00:43:20;10.90;99.90
39401;DHT22;54391;50.000;7.360;2023-05-10T00:50:42;11.00;99.90
39401;DHT22;54391;50.000;7.360;2023-05-10T00:53:12;11.00;99.90
39401;DHT22;54391;50.000;7.360;2023-05-10T00:55:39;11.00;99.90
39401;DHT22;54391;50.000;7.360;2023-05-10T00:58:06;11.00;99.90
39401;DHT22;54391;50.000;7.360;2023-05-10T01:00:34;11.00;99.90
39401;DHT22;54391;50.000;7.360;2023-05-10T01:07:57;11.10;99.90
39401;DHT22;54391;50.000;7.360;2023-05-10T01:15:21;11.10;99.90
39401;DHT22;54391;50.000;7.360;2023-05-10T01:17:49;11.10;99.90
39401;DHT22;54391;50.000;7.360;2023-05-10T01:20:16;11.10;99.90
39401;DHT22;54391;50.000;7.360;2023-05-10T01:23:12;11.10;99.90
39401;DHT22;54391;50.000;7.360;2023-05-10T01:26:09;11.10;99.90
39401;DHT22;54391;50.000;7.360;2023-05-10T01:28:58;11.10;99.90
39401;DHT22;54391;50.000;7.360;2023-05-10T01:32:05;11.10;99.90
39401;DHT22;54391;50.000;7.360;2023-05-10T01:34:41;11.00;99.90
39401;DHT22;54391;50.000;7.360;2023-05-10T01:37:12;11.10;99.90
39401;DHT22;54391;50.000;7.360;2023-05-10T01:39:45;11.00;99.90
39401;DHT22;54391;50.000;7.360;2023-05-10T01:42:17;11.00;99.90
39401;DHT22;54391;50.000;7.360;2023-05-10T01:44:52;11.00;99.90
39401;DHT22;54391;50.000;7.360;2023-05-10T01:47:28;11.00;99.90
39401;DHT22;54391;50.000;7.360;2023-05-10T01:50:02;11.00;99.90
39401;DHT22;54391;50.000;7.360;2023-05-10T01:52:32;10.90;99.90
39401;DHT22;54391;50.000;7.360;2023-05-10T01:55:02;10.90;99.90
39401;DHT22;54391;50.000;7.360;2023-05-10T01:57:34;10.90;99.90
39401;DHT22;54391;50.000;7.360;2023-05-10T02:00:03;10.90;99.90
39401;DHT22;54391;50.000;7.360;2023-05-10T02:02:45;10.90;99.90
39401;DHT22;54391;50.000;7.360;2023-05-10T02:05:14;10.90;99.90
39401;DHT22;54391;50.000;7.360;2023-05-10T02:07:42;10.90;99.90
39401;DHT22;54391;50.000;7.360;2023-05-10T02:10:11;11.00;99.90
39401;DHT22;54391;50.000;7.360;2023-05-10T02:12:42;10.90;99.90
39401;DHT22;54391;50.000;7.360;2023-05-10T02:15:12;10.90;99.90
39401;DHT22;54391;50.000;7.360;2023-05-10T02:17:43;10.90;99.90
39401;DHT22;54391;50.000;7.360;2023-05-10T02:20:12;10.90;99.90
39401;DHT22;54391;50.000;7.360;2023-05-10T02:22:41;10.90;99.90
39401;DHT22;54391;50.000;7.360;2023-05-10T02:25:11;10.90;99.90
39401;DHT22;54391;50.000;7.360;2023-05-10T02:27:41;10.90;99.90
39401;DHT22;54391;50.000;7.360;2023-05-10T02:30:10;10.90;99.90
39401;DHT22;54391;50.000;7.360;2023-05-10T02:32:39;10.90;99.90
39401;DHT22;54391;50.000;7.360;2023-05-10T02:35:08;10.90;99.90
39401;DHT22;54391;50.000;7.360;2023-05-10T02:37:37;10.90;99.90
39401;DHT22;54391;50.000;7.360;2023-05-10T02:40:06;10.90;99.90
39401;DHT22;54391;50.000;7.360;2023-05-10T02:42:37;10.80;99.90
39401;DHT22;54391;50.000;7.360;2023-05-10T02:45:08;10.80;99.90
39401;DHT22;54391;50.000;7.360;2023-05-10T02:47:37;10.90;99.90
39401;DHT22;54391;50.000;7.360;2023-05-10T02:50:05;10.90;99.90
39401;DHT22;54391;50.000;7.360;2023-05-10T02:52:39;10.90;99.90
39401;DHT22;54391;50.000;7.360;2023-05-10T02:55:09;10.90;99.90
39401;DHT22;54391;50.000;7.360;2023-05-10T02:57:41;10.80;99.90
39401;DHT22;54391;50.000;7.360;2023-05-10T03:00:11;10.80;99.90
39401;DHT22;54391;50.000;7.360;2023-05-10T03:05:06;10.70;99.90
39401;DHT22;54391;50.000;7.360;2023-05-10T03:07:35;10.80;99.90
39401;DHT22;54391;50.000;7.360;2023-05-10T03:10:03;10.80;99.90
39401;DHT22;54391;50.000;7.360;2023-05-10T03:12:41;10.70;99.90
39401;DHT22;54391;50.000;7.360;2023-05-10T03:15:19;10.70;99.90
39401;DHT22;54391;50.000;7.360;2023-05-10T03:17:51;10.70;99.90
39401;DHT22;54391;50.000;7.360;2023-05-10T03:20:24;10.70;99.90
39401;DHT22;54391;50.000;7.360;2023-05-10T03:23:02;10.60;99.90
39401;DHT22;54391;50.000;7.360;2023-05-10T03:25:31;10.80;99.90
39401;DHT22;54391;50.000;7.360;2023-05-10T03:28:01;10.70;99.90
39401;DHT22;54391;50.000;7.360;2023-05-10T03:30:31;10.60;99.90
39401;DHT22;54391;50.000;7.360;2023-05-10T03:32:58;10.60;99.90
39401;DHT22;54391;50.000;7.360;2023-05-10T03:40:27;10.60;99.90
39401;DHT22;54391;50.000;7.360;2023-05-10T03:45:25;10.60;99.90
39401;DHT22;54391;50.000;7.360;2023-05-10T03:50:19;10.60;99.90
39401;DHT22;54391;50.000;7.360;2023-05-10T03:52:47;10.60;99.90
39401;DHT22;54391;50.000;7.360;2023-05-10T03:55:16;10.60;99.90
39401;DHT22;54391;50.000;7.360;2023-05-10T04:00:12;10.60;99.90
39401;DHT22;54391;50.000;7.360;2023-05-10T04:02:42;11.70;99.90
39401;DHT22;54391;50.000;7.360;2023-05-10T04:05:15;10.70;99.90
39401;DHT22;54391;50.000;7.360;2023-05-10T04:07:42;10.60;99.90
39401;DHT22;54391;50.000;7.360;2023-05-10T04:10:11;10.70;99.90
39401;DHT22;54391;50.000;7.360;2023-05-10T04:15:07;10.70;99.90
39401;DHT22;54391;50.000;7.360;2023-05-10T04:17:35;10.70;99.90
39401;DHT22;54391;50.000;7.360;2023-05-10T04:20:02;10.70;99.90
39401;DHT22;54391;50.000;7.360;2023-05-10T04:24:56;10.70;99.90
39401;DHT22;54391;50.000;7.360;2023-05-10T04:27:24;10.70;99.90
39401;DHT22;54391;50.000;7.360;2023-05-10T04:34:47;10.70;99.90
39401;DHT22;54391;50.000;7.360;2023-05-10T04:44:37;10.70;99.90
39401;DHT22;54391;50.000;7.360;2023-05-10T04:49:33;10.50;99.90
39401;DHT22;54391;50.000;7.360;2023-05-10T04:52:00;12.80;99.90
39401;DHT22;54391;50.000;7.360;2023-05-10T04:54:27;10.90;99.90
39401;DHT22;54391;50.000;7.360;2023-05-10T04:56:54;10.90;99.00
39401;DHT22;54391;50.000;7.360;2023-05-10T05:01:49;10.80;99.90
39401;DHT22;54391;50.000;7.360;2023-05-10T05:06:45;10.70;97.50
39401;DHT22;54391;50.000;7.360;2023-05-10T05:09:12;10.70;96.50
39401;DHT22;54391;50.000;7.360;2023-05-10T05:14:06;10.80;97.10
39401;DHT22;54391;50.000;7.360;2023-05-10T05:21:29;11.00;94.80
39401;DHT22;54391;50.000;7.360;2023-05-10T05:23:57;11.10;94.70
39401;DHT22;54391;50.000;7.360;2023-05-10T05:26:26;11.00;93.90
39401;DHT22;54391;50.000;7.360;2023-05-10T05:33:48;11.00;93.20
39401;DHT22;54391;50.000;7.360;2023-05-10T05:43:38;11.10;93.10
39401;DHT22;54391;50.000;7.360;2023-05-10T05:48:33;11.20;93.90
39401;DHT22;54391;50.000;7.360;2023-05-10T05:55:57;11.20;88.10
39401;DHT22;54391;50.000;7.360;2023-05-10T05:58:24;11.30;90.60
39401;DHT22;54391;50.000;7.360;2023-05-10T06:03:20;11.20;91.60
39401;DHT22;54391;50.000;7.360;2023-05-10T06:05:47;11.30;91.70
39401;DHT22;54391;50.000;7.360;2023-05-10T06:08:14;11.30;92.40
39401;DHT22;54391;50.000;7.360;2023-05-10T06:13:10;11.40;95.80
39401;DHT22;54391;50.000;7.360;2023-05-10T06:15:37;11.40;93.90
39401;DHT22;54391;50.000;7.360;2023-05-10T06:18:04;11.40;95.60
39401;DHT22;54391;50.000;7.360;2023-05-10T06:20:32;11.40;94.80
39401;DHT22;54391;50.000;7.360;2023-05-10T06:27:54;11.40;91.50
39401;DHT22;54391;50.000;7.360;2023-05-10T06:37:49;11.50;93.50
39401;DHT22;54391;50.000;7.360;2023-05-10T06:40:17;11.50;94.20
39401;DHT22;54391;50.000;7.360;2023-05-10T06:42:44;11.40;94.40
39401;DHT22;54391;50.000;7.360;2023-05-10T06:45:12;11.40;96.50
39401;DHT22;54391;50.000;7.360;2023-05-10T06:47:41;11.50;98.10
39401;DHT22;54391;50.000;7.360;2023-05-10T06:50:09;11.40;98.20
39401;DHT22;54391;50.000;7.360;2023-05-10T06:55:05;11.50;99.80
39401;DHT22;54391;50.000;7.360;2023-05-10T06:57:32;11.50;99.70
39401;DHT22;54391;50.000;7.360;2023-05-10T06:59:59;11.50;98.10
39401;DHT22;54391;50.000;7.360;2023-05-10T07:02:28;11.50;98.30
39401;DHT22;54391;50.000;7.360;2023-05-10T07:04:57;11.40;98.00
39401;DHT22;54391;50.000;7.360;2023-05-10T07:07:24;11.40;98.90
39401;DHT22;54391;50.000;7.360;2023-05-10T07:12:18;11.60;99.90
39401;DHT22;54391;50.000;7.360;2023-05-10T07:19:40;11.60;92.10
39401;DHT22;54391;50.000;7.360;2023-05-10T07:24:36;11.60;90.60
39401;DHT22;54391;50.000;7.360;2023-05-10T07:27:04;11.60;87.00
39401;DHT22;54391;50.000;7.360;2023-05-10T07:29:32;11.40;88.10
39401;DHT22;54391;50.000;7.360;2023-05-10T07:31:59;11.50;91.50
39401;DHT22;54391;50.000;7.360;2023-05-10T07:36:57;11.20;88.00
39401;DHT22;54391;50.000;7.360;2023-05-10T07:44:20;11.40;84.90
39401;DHT22;54391;50.000;7.360;2023-05-10T07:46:48;11.50;84.90
39401;DHT22;54391;50.000;7.360;2023-05-10T07:49:15;11.40;80.10
39401;DHT22;54391;50.000;7.360;2023-05-10T07:51:42;11.40;83.20
39401;DHT22;54391;50.000;7.360;2023-05-10T07:56:39;11.40;85.20
39401;DHT22;54391;50.000;7.360;2023-05-10T08:01:42;11.40;78.50
39401;DHT22;54391;50.000;7.360;2023-05-10T08:06:37;11.40;77.10
39401;DHT22;54391;50.000;7.360;2023-05-10T08:11:31;11.50;76.90
39401;DHT22;54391;50.000;7.360;2023-05-10T08:16:27;11.80;76.60
39401;DHT22;54391;50.000;7.360;2023-05-10T08:18:54;11.90;69.20
39401;DHT22;54391;50.000;7.360;2023-05-10T08:21:21;12.00;69.20
39401;DHT22;54391;50.000;7.360;2023-05-10T08:23:49;12.00;61.80
39401;DHT22;54391;50.000;7.360;2023-05-10T08:26:16;12.10;64.80
39401;DHT22;54391;50.000;7.360;2023-05-10T08:28:43;12.20;64.80
39401;DHT22;54391;50.000;7.360;2023-05-10T08:31:12;12.30;63.10
39401;DHT22;54391;50.000;7.360;2023-05-10T08:33:39;12.30;61.70
39401;DHT22;54391;50.000;7.360;2023-05-10T08:36:06;12.20;56.60
39401;DHT22;54391;50.000;7.360;2023-05-10T08:38:33;12.20;57.70
39401;DHT22;54391;50.000;7.360;2023-05-10T08:41:02;12.40;57.90
39401;DHT22;54391;50.000;7.360;2023-05-10T08:43:30;12.30;55.80
39401;DHT22;54391;50.000;7.360;2023-05-10T08:46:00;12.20;56.60
39401;DHT22;54391;50.000;7.360;2023-05-10T08:48:30;12.20;59.90
39401;DHT22;54391;50.000;7.360;2023-05-10T08:50:58;12.40;57.20
39401;DHT22;54391;50.000;7.360;2023-05-10T08:53:29;12.40;54.60
39401;DHT22;54391;50.000;7.360;2023-05-10T08:58:25;12.50;47.70
39401;DHT22;54391;50.000;7.360;2023-05-10T09:00:52;12.50;50.80
39401;DHT22;54391;50.000;7.360;2023-05-10T09:03:20;12.30;48.20
39401;DHT22;54391;50.000;7.360;2023-05-10T09:05:48;12.20;51.10
39401;DHT22;54391;50.000;7.360;2023-05-10T09:10:43;12.00;54.30
39401;DHT22;54391;50.000;7.360;2023-05-10T09:13:14;12.00;57.70
39401;DHT22;54391;50.000;7.360;2023-05-10T09:15:44;11.80;53.70
39401;DHT22;54391;50.000;7.360;2023-05-10T09:18:11;11.80;52.80
39401;DHT22;54391;50.000;7.360;2023-05-10T09:23:08;12.30;48.30
39401;DHT22;54391;50.000;7.360;2023-05-10T09:25:35;13.00;45.30
39401;DHT22;54391;50.000;7.360;2023-05-10T09:28:06;14.00;35.10
39401;DHT22;54391;50.000;7.360;2023-05-10T09:30:34;14.50;27.70
39401;DHT22;54391;50.000;7.360;2023-05-10T09:33:01;15.00;24.00
39401;DHT22;54391;50.000;7.360;2023-05-10T09:35:30;15.50;19.40
39401;DHT22;54391;50.000;7.360;2023-05-10T09:38:00;16.10;19.30
39401;DHT22;54391;50.000;7.360;2023-05-10T09:40:29;15.60;17.60
39401;DHT22;54391;50.000;7.360;2023-05-10T09:42:58;15.70;18.90
39401;DHT22;54391;50.000;7.360;2023-05-10T09:45:28;15.90;17.50
39401;DHT22;54391;50.000;7.360;2023-05-10T09:47:56;16.00;13.50
39401;DHT22;54391;50.000;7.360;2023-05-10T09:50:24;16.40;15.00
39401;DHT22;54391;50.000;7.360;2023-05-10T09:52:53;16.80;15.00
39401;DHT22;54391;50.000;7.360;2023-05-10T09:55:23;16.90;12.20
39401;DHT22;54391;50.000;7.360;2023-05-10T09:57:59;16.60;11.70
39401;DHT22;54391;50.000;7.360;2023-05-10T10:00:28;17.00;12.50
39401;DHT22;54391;50.000;7.360;2023-05-10T10:02:56;17.20;10.50
39401;DHT22;54391;50.000;7.360;2023-05-10T10:05:28;17.00;9.40
39401;DHT22;54391;50.000;7.360;2023-05-10T10:12:52;16.00;12.30
39401;DHT22;54391;50.000;7.360;2023-05-10T10:15:20;15.80;16.10
39401;DHT22;54391;50.000;7.360;2023-05-10T10:17:48;16.20;12.10
39401;DHT22;54391;50.000;7.360;2023-05-10T10:20:16;16.10;12.80
39401;DHT22;54391;50.000;7.360;2023-05-10T10:22:44;15.90;11.80
39401;DHT22;54391;50.000;7.360;2023-05-10T10:25:12;15.50;15.00
39401;DHT22;54391;50.000;7.360;2023-05-10T10:27:47;15.90;13.50
39401;DHT22;54391;50.000;7.360;2023-05-10T10:30:20;15.90;13.80
39401;DHT22;54391;50.000;7.360;2023-05-10T10:33:06;17.10;12.90
39401;DHT22;54391;50.000;7.360;2023-05-10T10:35:35;16.50;12.80
39401;DHT22;54391;50.000;7.360;2023-05-10T10:38:03;16.30;15.50
39401;DHT22;54391;50.000;7.360;2023-05-10T10:40:31;15.70;15.50
39401;DHT22;54391;50.000;7.360;2023-05-10T10:43:22;15.80;16.40
39401;DHT22;54391;50.000;7.360;2023-05-10T10:46:12;15.50;15.40
39401;DHT22;54391;50.000;7.360;2023-05-10T10:48:40;14.80;18.60
39401;DHT22;54391;50.000;7.360;2023-05-10T10:53:37;14.60;18.70
39401;DHT22;54391;50.000;7.360;2023-05-10T10:56:06;14.60;20.00
39401;DHT22;54391;50.000;7.360;2023-05-10T11:01:14;14.30;21.40
39401;DHT22;54391;50.000;7.360;2023-05-10T11:04:16;14.60;18.80
39401;DHT22;54391;50.000;7.360;2023-05-10T11:11:49;15.10;19.00
39401;DHT22;54391;50.000;7.360;2023-05-10T11:14:20;14.90;19.10
39401;DHT22;54391;50.000;7.360;2023-05-10T11:16:49;15.30;19.30
39401;DHT22;54391;50.000;7.360;2023-05-10T11:19:17;15.50;18.30
39401;DHT22;54391;50.000;7.360;2023-05-10T11:21:46;15.20;17.00
39401;DHT22;54391;50.000;7.360;2023-05-10T11:24:16;14.90;18.40
39401;DHT22;54391;50.000;7.360;2023-05-10T11:26:43;15.30;18.50
39401;DHT22;54391;50.000;7.360;2023-05-10T11:29:13;15.40;18.60
39401;DHT22;54391;50.000;7.360;2023-05-10T11:31:43;15.30;19.90
39401;DHT22;54391;50.000;7.360;2023-05-10T11:34:23;15.50;17.10
39401;DHT22;54391;50.000;7.360;2023-05-10T11:36:51;15.50;18.10
39401;DHT22;54391;50.000;7.360;2023-05-10T11:39:19;14.80;19.90
39401;DHT22;54391;50.000;7.360;2023-05-10T11:41:48;14.10;21.50
39401;DHT22;54391;50.000;7.360;2023-05-10T11:44:15;14.20;25.10
39401;DHT22;54391;50.000;7.360;2023-05-10T11:46:43;14.30;23.20
39401;DHT22;54391;50.000;7.360;2023-05-10T11:49:10;14.50;23.90
39401;DHT22;54391;50.000;7.360;2023-05-10T11:54:10;14.90;19.90
39401;DHT22;54391;50.000;7.360;2023-05-10T11:56:38;14.70;18.10
39401;DHT22;54391;50.000;7.360;2023-05-10T11:59:06;14.50;16.80
39401;DHT22;54391;50.000;7.360;2023-05-10T12:01:33;15.20;18.50
39401;DHT22;54391;50.000;7.360;2023-05-10T12:04:01;15.80;13.90
39401;DHT22;54391;50.000;7.360;2023-05-10T12:06:30;15.70;15.10
39401;DHT22;54391;50.000;7.360;2023-05-10T12:11:29;16.70;10.50
39401;DHT22;54391;50.000;7.360;2023-05-10T12:13:56;15.80;13.70
39401;DHT22;54391;50.000;7.360;2023-05-10T12:16:24;15.70;12.60
39401;DHT22;54391;50.000;7.360;2023-05-10T12:18:52;15.50;12.60
39401;DHT22;54391;50.000;7.360;2023-05-10T12:21:20;15.30;12.60
39401;DHT22;54391;50.000;7.360;2023-05-10T12:23:49;14.90;13.30
39401;DHT22;54391;50.000;7.360;2023-05-10T12:26:18;14.70;13.50
39401;DHT22;54391;50.000;7.360;2023-05-10T12:28:46;14.30;12.50
39401;DHT22;54391;50.000;7.360;2023-05-10T12:33:41;14.30;14.10
39401;DHT22;54391;50.000;7.360;2023-05-10T12:36:09;14.40;15.40
39401;DHT22;54391;50.000;7.360;2023-05-10T12:38:38;14.60;15.10
39401;DHT22;54391;50.000;7.360;2023-05-10T12:41:10;14.70;15.10
39401;DHT22;54391;50.000;7.360;2023-05-10T12:43:40;14.90;12.10
39401;DHT22;54391;50.000;7.360;2023-05-10T12:46:08;15.20;16.10
39401;DHT22;54391;50.000;7.360;2023-05-10T12:48:37;15.10;14.40
39401;DHT22;54391;50.000;7.360;2023-05-10T12:51:04;15.20;16.00
39401;DHT22;54391;50.000;7.360;2023-05-10T12:53:35;15.30;13.70
39401;DHT22;54391;50.000;7.360;2023-05-10T12:58:30;15.30;14.10
39401;DHT22;54391;50.000;7.360;2023-05-10T13:00:59;15.30;14.20
39401;DHT22;54391;50.000;7.360;2023-05-10T13:05:55;15.50;12.00
39401;DHT22;54391;50.000;7.360;2023-05-10T13:10:49;15.40;12.80
39401;DHT22;54391;50.000;7.360;2023-05-10T13:13:16;15.10;12.20
39401;DHT22;54391;50.000;7.360;2023-05-10T13:15:43;15.00;12.40
39401;DHT22;54391;50.000;7.360;2023-05-10T13:23:10;14.80;11.30
39401;DHT22;54391;50.000;7.360;2023-05-10T13:25:37;14.80;12.10
39401;DHT22;54391;50.000;7.360;2023-05-10T13:28:04;15.20;13.20
39401;DHT22;54391;50.000;7.360;2023-05-10T13:30:31;15.40;12.50
39401;DHT22;54391;50.000;7.360;2023-05-10T13:32:58;15.90;12.40
39401;DHT22;54391;50.000;7.360;2023-05-10T13:35:28;15.90;9.30
39401;DHT22;54391;50.000;7.360;2023-05-10T13:40:23;16.00;9.40
39401;DHT22;54391;50.000;7.360;2023-05-10T13:45:18;13.60;8.20
39401;DHT22;54391;50.000;7.360;2023-05-10T13:52:45;15.70;9.10
39401;DHT22;54391;50.000;7.360;2023-05-10T13:55:12;15.80;9.60
39401;DHT22;54391;50.000;7.360;2023-05-10T13:57:39;15.60;9.60
39401;DHT22;54391;50.000;7.360;2023-05-10T14:00:09;15.40;9.50
39401;DHT22;54391;50.000;7.360;2023-05-10T14:02:36;15.50;11.10
39401;DHT22;54391;50.000;7.360;2023-05-10T14:05:04;15.80;11.40
39401;DHT22;54391;50.000;7.360;2023-05-10T14:10:00;15.90;7.30
39401;DHT22;54391;50.000;7.360;2023-05-10T14:12:29;16.20;8.00
39401;DHT22;54391;50.000;7.360;2023-05-10T14:14:56;16.20;5.30
39401;DHT22;54391;50.000;7.360;2023-05-10T14:17:23;15.90;5.80
39401;DHT22;54391;50.000;7.360;2023-05-10T14:19:52;15.90;5.60
39401;DHT22;54391;50.000;7.360;2023-05-10T14:22:19;16.00;6.30
39401;DHT22;54391;50.000;7.360;2023-05-10T14:24:46;16.00;4.30
39401;DHT22;54391;50.000;7.360;2023-05-10T14:29:42;16.00;3.90
39401;DHT22;54391;50.000;7.360;2023-05-10T14:34:36;16.00;5.40
39401;DHT22;54391;50.000;7.360;2023-05-10T14:39:30;16.10;4.40
39401;DHT22;54391;50.000;7.360;2023-05-10T14:41:58;16.00;3.80
39401;DHT22;54391;50.000;7.360;2023-05-10T14:44:29;16.00;4.00
39401;DHT22;54391;50.000;7.360;2023-05-10T14:46:56;15.90;2.60
39401;DHT22;54391;50.000;7.360;2023-05-10T14:49:23;15.70;3.00
39401;DHT22;54391;50.000;7.360;2023-05-10T14:51:51;15.80;3.00
39401;DHT22;54391;50.000;7.360;2023-05-10T14:54:18;16.00;4.40
39401;DHT22;54391;50.000;7.360;2023-05-10T14:56:46;15.90;3.50
39401;DHT22;54391;50.000;7.360;2023-05-10T15:01:44;15.90;4.80
39401;DHT22;54391;50.000;7.360;2023-05-10T15:04:11;16.00;3.40
39401;DHT22;54391;50.000;7.360;2023-05-10T15:06:39;16.00;3.00
39401;DHT22;54391;50.000;7.360;2023-05-10T15:11:35;16.00;5.20
39401;DHT22;54391;50.000;7.360;2023-05-10T15:14:02;15.80;3.40
39401;DHT22;54391;50.000;7.360;2023-05-10T15:18:58;15.80;3.60
39401;DHT22;54391;50.000;7.360;2023-05-10T15:23:53;15.70;4.70
39401;DHT22;54391;50.000;7.360;2023-05-10T15:28:47;15.80;5.70
39401;DHT22;54391;50.000;7.360;2023-05-10T15:31:15;15.70;6.70
39401;DHT22;54391;50.000;7.360;2023-05-10T15:33:42;15.70;6.40
39401;DHT22;54391;50.000;7.360;2023-05-10T15:38:37;15.90;5.00
39401;DHT22;54391;50.000;7.360;2023-05-10T15:41:04;15.70;5.30
39401;DHT22;54391;50.000;7.360;2023-05-10T15:43:31;15.60;4.70
39401;DHT22;54391;50.000;7.360;2023-05-10T15:45:59;15.60;5.40
39401;DHT22;54391;50.000;7.360;2023-05-10T15:48:27;15.60;6.90
39401;DHT22;54391;50.000;7.360;2023-05-10T15:50:56;15.60;6.20
39401;DHT22;54391;50.000;7.360;2023-05-10T15:53:25;15.80;6.50
39401;DHT22;54391;50.000;7.360;2023-05-10T15:58:19;15.90;5.70
39401;DHT22;54391;50.000;7.360;2023-05-10T16:00:46;15.90;4.30
39401;DHT22;54391;50.000;7.360;2023-05-10T16:03:13;15.70;4.90
39401;DHT22;54391;50.000;7.360;2023-05-10T16:08:08;15.60;4.20
39401;DHT22;54391;50.000;7.360;2023-05-10T16:10:36;15.50;5.60
39401;DHT22;54391;50.000;7.360;2023-05-10T16:13:03;15.40;5.30
39401;DHT22;54391;50.000;7.360;2023-05-10T16:15:31;15.30;6.00
39401;DHT22;54391;50.000;7.360;2023-05-10T16:17:58;15.40;6.20
39401;DHT22;54391;50.000;7.360;2023-05-10T16:20:26;15.30;4.80
39401;DHT22;54391;50.000;7.360;2023-05-10T16:22:53;15.50;4.00
39401;DHT22;54391;50.000;7.360;2023-05-10T16:27:48;15.20;3.90
39401;DHT22;54391;50.000;7.360;2023-05-10T16:30:16;15.10;3.10
39401;DHT22;54391;50.000;7.360;2023-05-10T16:32:43;15.10;3.30
39401;DHT22;54391;50.000;7.360;2023-05-10T16:37:37;15.20;4.40
39401;DHT22;54391;50.000;7.360;2023-05-10T16:40:06;15.20;4.60
39401;DHT22;54391;50.000;7.360;2023-05-10T16:42:33;15.20;4.50
39401;DHT22;54391;50.000;7.360;2023-05-10T16:45:03;15.10;5.00
39401;DHT22;54391;50.000;7.360;2023-05-10T16:52:28;15.00;4.60
39401;DHT22;54391;50.000;7.360;2023-05-10T16:54:55;14.90;5.20
39401;DHT22;54391;50.000;7.360;2023-05-10T16:57:23;15.00;6.00
39401;DHT22;54391;50.000;7.360;2023-05-10T16:59:50;15.00;5.10
39401;DHT22;54391;50.000;7.360;2023-05-10T17:04:47;15.10;4.30
39401;DHT22;54391;50.000;7.360;2023-05-10T17:07:15;15.20;3.90
39401;DHT22;54391;50.000;7.360;2023-05-10T17:09:43;15.10;3.70
39401;DHT22;54391;50.000;7.360;2023-05-10T17:14:38;15.10;4.70
39401;DHT22;54391;50.000;7.360;2023-05-10T17:17:06;15.00;3.40
39401;DHT22;54391;50.000;7.360;2023-05-10T17:19:34;15.10;4.40
39401;DHT22;54391;50.000;7.360;2023-05-10T17:26:57;14.80;2.60
39401;DHT22;54391;50.000;7.360;2023-05-10T17:29:26;14.80;3.90
39401;DHT22;54391;50.000;7.360;2023-05-10T17:31:53;14.80;3.60
39401;DHT22;54391;50.000;7.360;2023-05-10T17:34:21;14.80;5.30
39401;DHT22;54391;50.000;7.360;2023-05-10T17:41:44;14.60;6.90
39401;DHT22;54391;50.000;7.360;2023-05-10T17:44:11;14.60;6.70
39401;DHT22;54391;50.000;7.360;2023-05-10T17:46:38;14.60;7.60
39401;DHT22;54391;50.000;7.360;2023-05-10T17:49:05;14.70;7.20
39401;DHT22;54391;50.000;7.360;2023-05-10T17:51:32;14.70;8.10
39401;DHT22;54391;50.000;7.360;2023-05-10T17:54:01;14.70;7.40
39401;DHT22;54391;50.000;7.360;2023-05-10T17:56:29;14.70;7.00
39401;DHT22;54391;50.000;7.360;2023-05-10T17:58:56;14.60;6.40
39401;DHT22;54391;50.000;7.360;2023-05-10T18:01:23;14.70;7.40
39401;DHT22;54391;50.000;7.360;2023-05-10T18:03:50;14.60;8.20
39401;DHT22;54391;50.000;7.360;2023-05-10T18:06:17;14.30;8.70
39401;DHT22;54391;50.000;7.360;2023-05-10T18:08:45;14.50;9.60
39401;DHT22;54391;50.000;7.360;2023-05-10T18:11:13;14.60;8.00
39401;DHT22;54391;50.000;7.360;2023-05-10T18:13:41;14.50;6.80
39401;DHT22;54391;50.000;7.360;2023-05-10T18:16:08;13.90;7.80
39401;DHT22;54391;50.000;7.360;2023-05-10T18:18:37;14.40;9.20
39401;DHT22;54391;50.000;7.360;2023-05-10T18:21:04;14.30;9.20
39401;DHT22;54391;50.000;7.360;2023-05-10T18:23:31;14.30;10.50
39401;DHT22;54391;50.000;7.360;2023-05-10T18:25:58;14.20;10.00
39401;DHT22;54391;50.000;7.360;2023-05-10T18:28:29;14.20;10.50
39401;DHT22;54391;50.000;7.360;2023-05-10T18:30:56;14.20;10.20
39401;DHT22;54391;50.000;7.360;2023-05-10T18:33:23;14.20;11.10
39401;DHT22;54391;50.000;7.360;2023-05-10T18:35:50;14.10;10.20
39401;DHT22;54391;50.000;7.360;2023-05-10T18:38:18;14.20;11.70
39401;DHT22;54391;50.000;7.360;2023-05-10T18:40:45;14.10;11.30
39401;DHT22;54391;50.000;7.360;2023-05-10T18:43:12;14.00;13.20
39401;DHT22;54391;50.000;7.360;2023-05-10T18:45:41;13.80;13.60
39401;DHT22;54391;50.000;7.360;2023-05-10T18:50:35;13.60;13.30
39401;DHT22;54391;50.000;7.360;2023-05-10T18:53:03;13.60;13.20
39401;DHT22;54391;50.000;7.360;2023-05-10T18:57:58;13.60;13.60
39401;DHT22;54391;50.000;7.360;2023-05-10T19:00:25;13.50;14.00
39401;DHT22;54391;50.000;7.360;2023-05-10T19:02:54;13.50;14.60
39401;DHT22;54391;50.000;7.360;2023-05-10T19:07:54;13.40;14.50
39401;DHT22;54391;50.000;7.360;2023-05-10T19:12:49;13.40;15.30
39401;DHT22;54391;50.000;7.360;2023-05-10T19:15:16;13.40;15.90
39401;DHT22;54391;50.000;7.360;2023-05-10T19:17:44;13.40;14.60
39401;DHT22;54391;50.000;7.360;2023-05-10T19:20:12;13.30;14.70
39401;DHT22;54391;50.000;7.360;2023-05-10T19:22:40;13.50;14.90
39401;DHT22;54391;50.000;7.360;2023-05-10T19:25:08;13.30;15.30
39401;DHT22;54391;50.000;7.360;2023-05-10T19:30:03;13.30;15.10
39401;DHT22;54391;50.000;7.360;2023-05-10T19:32:31;13.30;17.10
39401;DHT22;54391;50.000;7.360;2023-05-10T19:34:58;13.30;16.60
39401;DHT22;54391;50.000;7.360;2023-05-10T19:37:27;13.20;16.10
39401;DHT22;54391;50.000;7.360;2023-05-10T19:39:54;13.30;16.20
39401;DHT22;54391;50.000;7.360;2023-05-10T19:44:48;13.30;14.40
39401;DHT22;54391;50.000;7.360;2023-05-10T19:47:16;13.30;14.70
39401;DHT22;54391;50.000;7.360;2023-05-10T19:49:43;13.30;14.20
39401;DHT22;54391;50.000;7.360;2023-05-10T19:52:10;13.30;13.70
39401;DHT22;54391;50.000;7.360;2023-05-10T19:54:39;13.20;14.00
39401;DHT22;54391;50.000;7.360;2023-05-10T19:57:08;13.00;14.20
39401;DHT22;54391;50.000;7.360;2023-05-10T19:59:35;12.80;14.20
39401;DHT22;54391;50.000;7.360;2023-05-10T20:02:03;12.70;15.50
39401;DHT22;54391;50.000;7.360;2023-05-10T20:09:27;12.30;15.80
39401;DHT22;54391;50.000;7.360;2023-05-10T20:14:24;12.20;16.60
39401;DHT22;54391;50.000;7.360;2023-05-10T20:16:51;12.20;16.90
39401;DHT22;54391;50.000;7.360;2023-05-10T20:19:18;12.10;16.50
39401;DHT22;54391;50.000;7.360;2023-05-10T20:26:40;11.90;18.10
39401;DHT22;54391;50.000;7.360;2023-05-10T20:29:09;11.80;18.10